<?xml version="1.0" encoding="UTF-8" standalone="no" ?>
<gpx xmlns="http://www.topografix.com/GPX/1/1" xmlns:xsi="http://www.w3.org/2001/XMLSchema-instance" xsi:schemaLocation="http://www.topografix.com/GPX/1/1 http://www.topografix.com/GPX/1/1/gpx.xsd" version="1.1" creator="VisuGPX - https://www.visugpx.com">
  <metadata>
    <name>13986423-La Verrie</name>
  </metadata>
  <trk>
    <name><![CDATA[13986423-La Verrie]]></name>
    <trkseg>
      <trkpt lat="46.96411" lon="-0.99356">
        <ele>152</ele>
        <time>2021-11-29T10:54:57Z</time>
      </trkpt>
      <trkpt lat="46.9642" lon="-0.99404">
        <ele>152</ele>
        <time>2021-11-29T10:55:24Z</time>
      </trkpt>
      <trkpt lat="46.96516" lon="-0.9937">
        <ele>152</ele>
        <time>2021-11-29T10:56:43Z</time>
      </trkpt>
      <trkpt lat="46.96538" lon="-0.99382">
        <ele>152</ele>
        <time>2021-11-29T10:57:02Z</time>
      </trkpt>
      <trkpt lat="46.96641" lon="-0.99248">
        <ele>150</ele>
        <time>2021-11-29T10:58:52Z</time>
      </trkpt>
      <trkpt lat="46.96673" lon="-0.99285">
        <ele>152</ele>
        <time>2021-11-29T10:59:25Z</time>
      </trkpt>
      <trkpt lat="46.96708" lon="-0.99349">
        <ele>154</ele>
        <time>2021-11-29T11:00:10Z</time>
      </trkpt>
      <trkpt lat="46.96748" lon="-0.99409">
        <ele>154</ele>
        <time>2021-11-29T11:00:56Z</time>
      </trkpt>
      <trkpt lat="46.968" lon="-0.99318">
        <ele>152</ele>
        <time>2021-11-29T11:02:00Z</time>
      </trkpt>
      <trkpt lat="46.96842" lon="-0.99211">
        <ele>149</ele>
        <time>2021-11-29T11:03:08Z</time>
      </trkpt>
      <trkpt lat="46.96822" lon="-0.99081">
        <ele>144</ele>
        <time>2021-11-29T11:04:21Z</time>
      </trkpt>
      <trkpt lat="46.96788" lon="-0.99029">
        <ele>142</ele>
        <time>2021-11-29T11:05:00Z</time>
      </trkpt>
      <trkpt lat="46.96775" lon="-0.98929">
        <ele>139</ele>
        <time>2021-11-29T11:05:56Z</time>
      </trkpt>
      <trkpt lat="46.96721" lon="-0.98824">
        <ele>133</ele>
        <time>2021-11-29T11:07:08Z</time>
      </trkpt>
      <trkpt lat="46.96684" lon="-0.98815">
        <ele>132</ele>
        <time>2021-11-29T11:07:38Z</time>
      </trkpt>
      <trkpt lat="46.96646" lon="-0.98817">
        <ele>131</ele>
        <time>2021-11-29T11:08:08Z</time>
      </trkpt>
      <trkpt lat="46.96617" lon="-0.98787">
        <ele>129</ele>
        <time>2021-11-29T11:08:36Z</time>
      </trkpt>
      <trkpt lat="46.96593" lon="-0.98741">
        <ele>126</ele>
        <time>2021-11-29T11:09:08Z</time>
      </trkpt>
      <trkpt lat="46.9659" lon="-0.98684">
        <ele>127</ele>
        <time>2021-11-29T11:09:39Z</time>
      </trkpt>
      <trkpt lat="46.96538" lon="-0.98662">
        <ele>130</ele>
        <time>2021-11-29T11:10:23Z</time>
      </trkpt>
      <trkpt lat="46.96425" lon="-0.9867">
        <ele>133</ele>
        <time>2021-11-29T11:11:53Z</time>
      </trkpt>
      <trkpt lat="46.96414" lon="-0.98633">
        <ele>135</ele>
        <time>2021-11-29T11:12:15Z</time>
      </trkpt>
      <trkpt lat="46.96335" lon="-0.985">
        <ele>141</ele>
        <time>2021-11-29T11:13:52Z</time>
      </trkpt>
      <trkpt lat="46.9626" lon="-0.98537">
        <ele>142</ele>
        <time>2021-11-29T11:14:55Z</time>
      </trkpt>
      <trkpt lat="46.9617" lon="-0.986">
        <ele>143</ele>
        <time>2021-11-29T11:16:15Z</time>
      </trkpt>
      <trkpt lat="46.96098" lon="-0.98602">
        <ele>147</ele>
        <time>2021-11-29T11:17:13Z</time>
      </trkpt>
      <trkpt lat="46.96048" lon="-0.98542">
        <ele>151</ele>
        <time>2021-11-29T11:18:04Z</time>
      </trkpt>
      <trkpt lat="46.96021" lon="-0.98428">
        <ele>151</ele>
        <time>2021-11-29T11:19:10Z</time>
      </trkpt>
      <trkpt lat="46.9602" lon="-0.98345">
        <ele>152</ele>
        <time>2021-11-29T11:19:56Z</time>
      </trkpt>
      <trkpt lat="46.95977" lon="-0.98257">
        <ele>155</ele>
        <time>2021-11-29T11:20:55Z</time>
      </trkpt>
      <trkpt lat="46.95934" lon="-0.98303">
        <ele>157</ele>
        <time>2021-11-29T11:21:37Z</time>
      </trkpt>
      <trkpt lat="46.95908" lon="-0.98391">
        <ele>160</ele>
        <time>2021-11-29T11:22:30Z</time>
      </trkpt>
      <trkpt lat="46.95899" lon="-0.98486">
        <ele>160</ele>
        <time>2021-11-29T11:23:22Z</time>
      </trkpt>
      <trkpt lat="46.95886" lon="-0.98523">
        <ele>159</ele>
        <time>2021-11-29T11:23:45Z</time>
      </trkpt>
      <trkpt lat="46.95832" lon="-0.98574">
        <ele>158</ele>
        <time>2021-11-29T11:24:36Z</time>
      </trkpt>
      <trkpt lat="46.95784" lon="-0.98693">
        <ele>158</ele>
        <time>2021-11-29T11:25:52Z</time>
      </trkpt>
      <trkpt lat="46.95861" lon="-0.98782">
        <ele>158</ele>
        <time>2021-11-29T11:27:10Z</time>
      </trkpt>
      <trkpt lat="46.95881" lon="-0.98817">
        <ele>158</ele>
        <time>2021-11-29T11:27:35Z</time>
      </trkpt>
      <trkpt lat="46.95895" lon="-0.98854">
        <ele>159</ele>
        <time>2021-11-29T11:27:58Z</time>
      </trkpt>
      <trkpt lat="46.95901" lon="-0.98872">
        <ele>159</ele>
        <time>2021-11-29T11:28:09Z</time>
      </trkpt>
      <trkpt lat="46.95884" lon="-0.98883">
        <ele>160</ele>
        <time>2021-11-29T11:28:24Z</time>
      </trkpt>
      <trkpt lat="46.95924" lon="-0.9906">
        <ele>163</ele>
        <time>2021-11-29T11:30:06Z</time>
      </trkpt>
      <trkpt lat="46.95917" lon="-0.99097">
        <ele>164</ele>
        <time>2021-11-29T11:30:27Z</time>
      </trkpt>
      <trkpt lat="46.95817" lon="-0.99233">
        <ele>165</ele>
        <time>2021-11-29T11:32:16Z</time>
      </trkpt>
      <trkpt lat="46.95725" lon="-0.99199">
        <ele>166</ele>
        <time>2021-11-29T11:33:32Z</time>
      </trkpt>
      <trkpt lat="46.95705" lon="-0.9918">
        <ele>166</ele>
        <time>2021-11-29T11:33:51Z</time>
      </trkpt>
      <trkpt lat="46.95656" lon="-0.99118">
        <ele>167</ele>
        <time>2021-11-29T11:34:43Z</time>
      </trkpt>
      <trkpt lat="46.95625" lon="-0.99129">
        <ele>167</ele>
        <time>2021-11-29T11:35:09Z</time>
      </trkpt>
      <trkpt lat="46.95556" lon="-0.9927">
        <ele>171</ele>
        <time>2021-11-29T11:36:44Z</time>
      </trkpt>
      <trkpt lat="46.9552" lon="-0.99322">
        <ele>174</ele>
        <time>2021-11-29T11:37:24Z</time>
      </trkpt>
      <trkpt lat="46.9538" lon="-0.99497">
        <ele>182</ele>
        <time>2021-11-29T11:39:52Z</time>
      </trkpt>
      <trkpt lat="46.95375" lon="-0.99552">
        <ele>182</ele>
        <time>2021-11-29T11:40:22Z</time>
      </trkpt>
      <trkpt lat="46.95403" lon="-0.9958">
        <ele>183</ele>
        <time>2021-11-29T11:40:49Z</time>
      </trkpt>
      <trkpt lat="46.95436" lon="-0.99758">
        <ele>182</ele>
        <time>2021-11-29T11:42:30Z</time>
      </trkpt>
      <trkpt lat="46.95441" lon="-0.99818">
        <ele>181</ele>
        <time>2021-11-29T11:43:03Z</time>
      </trkpt>
      <trkpt lat="46.95438" lon="-0.99864">
        <ele>180</ele>
        <time>2021-11-29T11:43:28Z</time>
      </trkpt>
      <trkpt lat="46.9548" lon="-0.99906">
        <ele>179</ele>
        <time>2021-11-29T11:44:09Z</time>
      </trkpt>
      <trkpt lat="46.9552" lon="-0.9995">
        <ele>178</ele>
        <time>2021-11-29T11:44:49Z</time>
      </trkpt>
      <trkpt lat="46.95542" lon="-0.99954">
        <ele>178</ele>
        <time>2021-11-29T11:45:07Z</time>
      </trkpt>
      <trkpt lat="46.95612" lon="-0.99895">
        <ele>178</ele>
        <time>2021-11-29T11:46:11Z</time>
      </trkpt>
      <trkpt lat="46.9566" lon="-0.99837">
        <ele>176</ele>
        <time>2021-11-29T11:47:01Z</time>
      </trkpt>
      <trkpt lat="46.95673" lon="-0.99808">
        <ele>175</ele>
        <time>2021-11-29T11:47:20Z</time>
      </trkpt>
      <trkpt lat="46.95703" lon="-0.99816">
        <ele>172</ele>
        <time>2021-11-29T11:47:44Z</time>
      </trkpt>
      <trkpt lat="46.95739" lon="-0.99788">
        <ele>169</ele>
        <time>2021-11-29T11:48:17Z</time>
      </trkpt>
      <trkpt lat="46.95744" lon="-0.99761">
        <ele>168</ele>
        <time>2021-11-29T11:48:32Z</time>
      </trkpt>
      <trkpt lat="46.95805" lon="-0.99754">
        <ele>165</ele>
        <time>2021-11-29T11:49:21Z</time>
      </trkpt>
      <trkpt lat="46.95796" lon="-0.99693">
        <ele>165</ele>
        <time>2021-11-29T11:49:55Z</time>
      </trkpt>
      <trkpt lat="46.95835" lon="-0.99661">
        <ele>164</ele>
        <time>2021-11-29T11:50:31Z</time>
      </trkpt>
      <trkpt lat="46.95872" lon="-0.99693">
        <ele>163</ele>
        <time>2021-11-29T11:51:06Z</time>
      </trkpt>
      <trkpt lat="46.95884" lon="-0.99714">
        <ele>163</ele>
        <time>2021-11-29T11:51:21Z</time>
      </trkpt>
      <trkpt lat="46.95917" lon="-0.99715">
        <ele>163</ele>
        <time>2021-11-29T11:51:47Z</time>
      </trkpt>
      <trkpt lat="46.95937" lon="-0.99668">
        <ele>162</ele>
        <time>2021-11-29T11:52:17Z</time>
      </trkpt>
      <trkpt lat="46.95935" lon="-0.99626">
        <ele>161</ele>
        <time>2021-11-29T11:52:40Z</time>
      </trkpt>
      <trkpt lat="46.95943" lon="-0.99591">
        <ele>161</ele>
        <time>2021-11-29T11:53:01Z</time>
      </trkpt>
      <trkpt lat="46.95929" lon="-0.99584">
        <ele>161</ele>
        <time>2021-11-29T11:53:12Z</time>
      </trkpt>
      <trkpt lat="46.95953" lon="-0.99516">
        <ele>159</ele>
        <time>2021-11-29T11:53:54Z</time>
      </trkpt>
      <trkpt lat="46.9597" lon="-0.9947">
        <ele>158</ele>
        <time>2021-11-29T11:54:23Z</time>
      </trkpt>
      <trkpt lat="46.95996" lon="-0.99481">
        <ele>157</ele>
        <time>2021-11-29T11:54:44Z</time>
      </trkpt>
      <trkpt lat="46.96005" lon="-0.99501">
        <ele>157</ele>
        <time>2021-11-29T11:54:58Z</time>
      </trkpt>
      <trkpt lat="46.96022" lon="-0.99465">
        <ele>157</ele>
        <time>2021-11-29T11:55:21Z</time>
      </trkpt>
      <trkpt lat="46.96095" lon="-0.99407">
        <ele>154</ele>
        <time>2021-11-29T11:56:28Z</time>
      </trkpt>
      <trkpt lat="46.96105" lon="-0.99391">
        <ele>155</ele>
        <time>2021-11-29T11:56:40Z</time>
      </trkpt>
      <trkpt lat="46.96119" lon="-0.99354">
        <ele>155</ele>
        <time>2021-11-29T11:57:03Z</time>
      </trkpt>
      <trkpt lat="46.96138" lon="-0.99337">
        <ele>154</ele>
        <time>2021-11-29T11:57:21Z</time>
      </trkpt>
      <trkpt lat="46.96144" lon="-0.99215">
        <ele>152</ele>
        <time>2021-11-29T11:58:28Z</time>
      </trkpt>
      <trkpt lat="46.96199" lon="-0.99159">
        <ele>150</ele>
        <time>2021-11-29T11:59:21Z</time>
      </trkpt>
      <trkpt lat="46.962" lon="-0.99145">
        <ele>149</ele>
        <time>2021-11-29T11:59:29Z</time>
      </trkpt>
      <trkpt lat="46.9625" lon="-0.99072">
        <ele>146</ele>
        <time>2021-11-29T12:00:25Z</time>
      </trkpt>
      <trkpt lat="46.96259" lon="-0.99069">
        <ele>146</ele>
        <time>2021-11-29T12:00:33Z</time>
      </trkpt>
      <trkpt lat="46.96284" lon="-0.9911">
        <ele>147</ele>
        <time>2021-11-29T12:01:03Z</time>
      </trkpt>
      <trkpt lat="46.96296" lon="-0.99083">
        <ele>147</ele>
        <time>2021-11-29T12:01:20Z</time>
      </trkpt>
      <trkpt lat="46.9631" lon="-0.99064">
        <ele>146</ele>
        <time>2021-11-29T12:01:36Z</time>
      </trkpt>
      <trkpt lat="46.96325" lon="-0.99087">
        <ele>147</ele>
        <time>2021-11-29T12:01:53Z</time>
      </trkpt>
      <trkpt lat="46.96357" lon="-0.99157">
        <ele>149</ele>
        <time>2021-11-29T12:02:39Z</time>
      </trkpt>
      <trkpt lat="46.96379" lon="-0.99226">
        <ele>150</ele>
        <time>2021-11-29T12:03:21Z</time>
      </trkpt>
      <trkpt lat="46.96411" lon="-0.99356">
        <ele>152</ele>
        <time>2021-11-29T12:04:36Z</time>
      </trkpt>
    </trkseg>
  </trk>
</gpx>